sensor_id;sensor_type;location;lat;lon;timestamp;P1;durP1;ratioP1;P2;durP2;ratioP2
71838;SDS011;59687;37.520;15.068;2022-10-31T00:01:23;11.07;;;5.93;;
71838;SDS011;59687;37.520;15.068;2022-10-31T00:04:01;10.13;;;5.80;;
71838;SDS011;59687;37.520;15.068;2022-10-31T00:06:28;14.48;;;6.38;;
71838;SDS011;59687;37.520;15.068;2022-10-31T00:08:59;10.63;;;5.95;;
71838;SDS011;59687;37.520;15.068;2022-10-31T00:11:28;11.10;;;6.40;;
71838;SDS011;59687;37.520;15.068;2022-10-31T00:13:56;9.27;;;6.13;;
71838;SDS011;59687;37.520;15.068;2022-10-31T00:16:25;8.93;;;5.78;;
71838;SDS011;59687;37.520;15.068;2022-10-31T00:18:56;12.00;;;5.82;;
71838;SDS011;59687;37.520;15.068;2022-10-31T00:21:28;12.88;;;6.20;;
71838;SDS011;59687;37.520;15.068;2022-10-31T00:23:57;9.20;;;5.43;;
71838;SDS011;59687;37.520;15.068;2022-10-31T00:26:27;10.63;;;5.80;;
71838;SDS011;59687;37.520;15.068;2022-10-31T00:28:58;9.80;;;6.70;;
71838;SDS011;59687;37.520;15.068;2022-10-31T00:31:26;11.00;;;5.88;;
71838;SDS011;59687;37.520;15.068;2022-10-31T00:33:53;9.93;;;5.45;;
71838;SDS011;59687;37.520;15.068;2022-10-31T00:36:21;10.48;;;5.63;;
71838;SDS011;59687;37.520;15.068;2022-10-31T00:38:48;8.33;;;4.97;;
71838;SDS011;59687;37.520;15.068;2022-10-31T00:41:15;9.27;;;5.70;;
71838;SDS011;59687;37.520;15.068;2022-10-31T00:43:44;9.60;;;5.90;;
71838;SDS011;59687;37.520;15.068;2022-10-31T00:46:13;10.68;;;5.60;;
71838;SDS011;59687;37.520;15.068;2022-10-31T00:48:40;10.25;;;5.40;;
71838;SDS011;59687;37.520;15.068;2022-10-31T00:51:08;9.30;;;5.80;;
71838;SDS011;59687;37.520;15.068;2022-10-31T00:53:35;9.73;;;6.07;;
71838;SDS011;59687;37.520;15.068;2022-10-31T00:56:02;11.80;;;6.38;;
71838;SDS011;59687;37.520;15.068;2022-10-31T00:58:31;9.68;;;6.10;;
71838;SDS011;59687;37.520;15.068;2022-10-31T01:00:59;14.52;;;6.75;;
71838;SDS011;59687;37.520;15.068;2022-10-31T01:03:28;10.97;;;6.43;;
71838;SDS011;59687;37.520;15.068;2022-10-31T01:06:04;12.73;;;6.55;;
71838;SDS011;59687;37.520;15.068;2022-10-31T01:08:34;10.30;;;5.78;;
71838;SDS011;59687;37.520;15.068;2022-10-31T01:11:07;10.05;;;5.20;;
71838;SDS011;59687;37.520;15.068;2022-10-31T01:13:42;9.05;;;5.55;;
71838;SDS011;59687;37.520;15.068;2022-10-31T01:16:14;9.80;;;5.30;;
71838;SDS011;59687;37.520;15.068;2022-10-31T01:18:43;10.05;;;5.57;;
71838;SDS011;59687;37.520;15.068;2022-10-31T01:21:11;10.43;;;5.95;;
71838;SDS011;59687;37.520;15.068;2022-10-31T01:23:41;9.40;;;5.53;;
71838;SDS011;59687;37.520;15.068;2022-10-31T01:26:16;10.68;;;5.88;;
71838;SDS011;59687;37.520;15.068;2022-10-31T01:28:50;8.93;;;5.37;;
71838;SDS011;59687;37.520;15.068;2022-10-31T01:31:21;9.57;;;5.35;;
71838;SDS011;59687;37.520;15.068;2022-10-31T01:33:49;8.63;;;4.68;;
71838;SDS011;59687;37.520;15.068;2022-10-31T01:36:25;11.40;;;5.70;;
71838;SDS011;59687;37.520;15.068;2022-10-31T01:38:53;9.32;;;5.15;;
71838;SDS011;59687;37.520;15.068;2022-10-31T01:41:24;9.07;;;5.20;;
71838;SDS011;59687;37.520;15.068;2022-10-31T01:44:01;10.45;;;5.10;;
71838;SDS011;59687;37.520;15.068;2022-10-31T01:47:15;10.25;;;4.65;;
71838;SDS011;59687;37.520;15.068;2022-10-31T01:49:46;7.40;;;4.10;;
71838;SDS011;59687;37.520;15.068;2022-10-31T01:54:51;9.83;;;3.70;;
71838;SDS011;59687;37.520;15.068;2022-10-31T01:57:23;6.63;;;3.53;;
71838;SDS011;59687;37.520;15.068;2022-10-31T01:59:52;6.60;;;3.55;;
71838;SDS011;59687;37.520;15.068;2022-10-31T02:02:25;8.10;;;3.42;;
71838;SDS011;59687;37.520;15.068;2022-10-31T02:04:56;6.68;;;3.42;;
71838;SDS011;59687;37.520;15.068;2022-10-31T02:07:27;7.40;;;3.47;;
71838;SDS011;59687;37.520;15.068;2022-10-31T02:10:00;6.32;;;3.67;;
71838;SDS011;59687;37.520;15.068;2022-10-31T02:12:30;7.95;;;3.97;;
71838;SDS011;59687;37.520;15.068;2022-10-31T02:14:59;6.63;;;3.30;;
71838;SDS011;59687;37.520;15.068;2022-10-31T02:17:26;8.00;;;3.40;;
71838;SDS011;59687;37.520;15.068;2022-10-31T02:20:18;6.17;;;3.53;;
71838;SDS011;59687;37.520;15.068;2022-10-31T02:31:35;6.70;;;3.42;;
71838;SDS011;59687;37.520;15.068;2022-10-31T02:37:14;7.35;;;3.47;;
71838;SDS011;59687;37.520;15.068;2022-10-31T02:46:58;7.43;;;3.83;;
71838;SDS011;59687;37.520;15.068;2022-10-31T02:52:37;6.15;;;3.22;;
71838;SDS011;59687;37.520;15.068;2022-10-31T02:55:12;6.38;;;3.58;;
71838;SDS011;59687;37.520;15.068;2022-10-31T02:58:04;6.10;;;3.15;;
71838;SDS011;59687;37.520;15.068;2022-10-31T03:00:41;6.15;;;3.03;;
71838;SDS011;59687;37.520;15.068;2022-10-31T03:03:36;6.77;;;3.30;;
71838;SDS011;59687;37.520;15.068;2022-10-31T03:06:20;7.28;;;3.35;;
71838;SDS011;59687;37.520;15.068;2022-10-31T03:09:02;7.50;;;3.35;;
71838;SDS011;59687;37.520;15.068;2022-10-31T03:11:42;9.18;;;4.18;;
71838;SDS011;59687;37.520;15.068;2022-10-31T03:14:24;6.88;;;3.60;;
71838;SDS011;59687;37.520;15.068;2022-10-31T03:16:59;7.53;;;3.43;;
71838;SDS011;59687;37.520;15.068;2022-10-31T03:19:33;8.90;;;3.00;;
71838;SDS011;59687;37.520;15.068;2022-10-31T03:22:07;7.60;;;3.45;;
71838;SDS011;59687;37.520;15.068;2022-10-31T03:24:48;6.38;;;2.75;;
71838;SDS011;59687;37.520;15.068;2022-10-31T03:27:21;6.88;;;3.20;;
71838;SDS011;59687;37.520;15.068;2022-10-31T03:29:53;8.40;;;3.60;;
71838;SDS011;59687;37.520;15.068;2022-10-31T03:34:56;7.15;;;3.08;;
71838;SDS011;59687;37.520;15.068;2022-10-31T03:37:27;7.35;;;3.10;;
71838;SDS011;59687;37.520;15.068;2022-10-31T03:39:58;7.50;;;3.30;;
71838;SDS011;59687;37.520;15.068;2022-10-31T03:42:30;7.60;;;4.37;;
71838;SDS011;59687;37.520;15.068;2022-10-31T03:45:03;6.90;;;4.38;;
71838;SDS011;59687;37.520;15.068;2022-10-31T03:47:32;8.63;;;3.30;;
71838;SDS011;59687;37.520;15.068;2022-10-31T03:50:02;7.70;;;3.20;;
71838;SDS011;59687;37.520;15.068;2022-10-31T03:55:20;7.40;;;3.37;;
71838;SDS011;59687;37.520;15.068;2022-10-31T04:00:49;6.50;;;3.20;;
71838;SDS011;59687;37.520;15.068;2022-10-31T04:03:19;5.38;;;2.95;;
71838;SDS011;59687;37.520;15.068;2022-10-31T04:06:03;7.47;;;3.05;;
71838;SDS011;59687;37.520;15.068;2022-10-31T04:08:40;7.60;;;4.80;;
71838;SDS011;59687;37.520;15.068;2022-10-31T04:11:16;7.93;;;2.72;;
71838;SDS011;59687;37.520;15.068;2022-10-31T04:13:55;6.47;;;2.70;;
71838;SDS011;59687;37.520;15.068;2022-10-31T04:16:26;6.40;;;2.72;;
71838;SDS011;59687;37.520;15.068;2022-10-31T04:18:54;6.95;;;2.78;;
71838;SDS011;59687;37.520;15.068;2022-10-31T04:21:26;6.73;;;2.50;;
71838;SDS011;59687;37.520;15.068;2022-10-31T04:23:57;5.75;;;2.85;;
71838;SDS011;59687;37.520;15.068;2022-10-31T04:26:29;6.07;;;2.70;;
71838;SDS011;59687;37.520;15.068;2022-10-31T04:28:56;4.82;;;2.55;;
71838;SDS011;59687;37.520;15.068;2022-10-31T04:31:27;5.90;;;2.90;;
71838;SDS011;59687;37.520;15.068;2022-10-31T04:33:56;5.70;;;3.10;;
71838;SDS011;59687;37.520;15.068;2022-10-31T04:36:23;6.50;;;2.78;;
71838;SDS011;59687;37.520;15.068;2022-10-31T04:38:53;5.78;;;2.80;;
71838;SDS011;59687;37.520;15.068;2022-10-31T04:41:44;6.85;;;2.50;;
71838;SDS011;59687;37.520;15.068;2022-10-31T04:44:14;5.22;;;2.40;;
71838;SDS011;59687;37.520;15.068;2022-10-31T04:46:48;5.97;;;2.20;;
71838;SDS011;59687;37.520;15.068;2022-10-31T04:49:15;5.63;;;2.50;;
71838;SDS011;59687;37.520;15.068;2022-10-31T04:51:42;6.68;;;2.50;;
71838;SDS011;59687;37.520;15.068;2022-10-31T04:54:12;6.00;;;2.70;;
71838;SDS011;59687;37.520;15.068;2022-10-31T04:56:53;8.02;;;2.78;;
71838;SDS011;59687;37.520;15.068;2022-10-31T04:59:22;8.40;;;2.70;;
71838;SDS011;59687;37.520;15.068;2022-10-31T05:01:51;6.95;;;2.70;;
71838;SDS011;59687;37.520;15.068;2022-10-31T05:04:37;6.18;;;2.70;;
71838;SDS011;59687;37.520;15.068;2022-10-31T05:07:06;5.95;;;2.70;;
71838;SDS011;59687;37.520;15.068;2022-10-31T05:09:34;5.15;;;2.60;;
71838;SDS011;59687;37.520;15.068;2022-10-31T05:12:01;5.57;;;2.50;;
71838;SDS011;59687;37.520;15.068;2022-10-31T05:14:50;8.27;;;2.70;;
71838;SDS011;59687;37.520;15.068;2022-10-31T05:17:40;7.15;;;2.60;;
71838;SDS011;59687;37.520;15.068;2022-10-31T05:20:33;5.97;;;2.55;;
71838;SDS011;59687;37.520;15.068;2022-10-31T05:23:10;7.65;;;2.65;;
71838;SDS011;59687;37.520;15.068;2022-10-31T05:25:39;9.57;;;3.10;;
71838;SDS011;59687;37.520;15.068;2022-10-31T05:28:08;7.47;;;3.05;;
71838;SDS011;59687;37.520;15.068;2022-10-31T05:30:36;8.88;;;3.00;;
71838;SDS011;59687;37.520;15.068;2022-10-31T05:33:08;7.72;;;3.15;;
71838;SDS011;59687;37.520;15.068;2022-10-31T05:35:41;10.02;;;3.05;;
71838;SDS011;59687;37.520;15.068;2022-10-31T05:38:37;8.73;;;3.47;;
71838;SDS011;59687;37.520;15.068;2022-10-31T05:41:12;8.15;;;4.35;;
71838;SDS011;59687;37.520;15.068;2022-10-31T05:43:43;7.93;;;4.07;;
71838;SDS011;59687;37.520;15.068;2022-10-31T05:46:15;9.32;;;3.92;;
71838;SDS011;59687;37.520;15.068;2022-10-31T05:49:05;8.02;;;3.55;;
71838;SDS011;59687;37.520;15.068;2022-10-31T05:52:10;7.43;;;3.50;;
71838;SDS011;59687;37.520;15.068;2022-10-31T05:54:46;6.65;;;3.72;;
71838;SDS011;59687;37.520;15.068;2022-10-31T05:57:20;10.52;;;3.63;;
71838;SDS011;59687;37.520;15.068;2022-10-31T05:59:47;8.60;;;3.50;;
71838;SDS011;59687;37.520;15.068;2022-10-31T06:02:20;8.23;;;3.80;;
71838;SDS011;59687;37.520;15.068;2022-10-31T06:05:17;7.80;;;3.50;;
71838;SDS011;59687;37.520;15.068;2022-10-31T06:07:45;6.10;;;3.28;;
71838;SDS011;59687;37.520;15.068;2022-10-31T06:10:13;7.57;;;3.05;;
71838;SDS011;59687;37.520;15.068;2022-10-31T06:12:42;8.07;;;3.88;;
71838;SDS011;59687;37.520;15.068;2022-10-31T06:15:16;6.63;;;3.13;;
71838;SDS011;59687;37.520;15.068;2022-10-31T06:17:47;7.07;;;3.20;;
71838;SDS011;59687;37.520;15.068;2022-10-31T06:20:25;7.43;;;4.15;;
71838;SDS011;59687;37.520;15.068;2022-10-31T06:22:57;8.00;;;4.00;;
71838;SDS011;59687;37.520;15.068;2022-10-31T06:25:25;7.63;;;3.10;;
71838;SDS011;59687;37.520;15.068;2022-10-31T06:27:52;8.93;;;3.67;;
71838;SDS011;59687;37.520;15.068;2022-10-31T06:30:25;8.40;;;4.00;;
71838;SDS011;59687;37.520;15.068;2022-10-31T06:32:52;8.02;;;4.00;;
71838;SDS011;59687;37.520;15.068;2022-10-31T06:35:19;8.65;;;3.88;;
71838;SDS011;59687;37.520;15.068;2022-10-31T06:37:50;6.82;;;3.42;;
71838;SDS011;59687;37.520;15.068;2022-10-31T06:40:36;11.93;;;4.82;;
71838;SDS011;59687;37.520;15.068;2022-10-31T06:43:21;5.87;;;3.50;;
71838;SDS011;59687;37.520;15.068;2022-10-31T06:46:01;9.88;;;3.75;;
71838;SDS011;59687;37.520;15.068;2022-10-31T06:48:40;8.40;;;4.05;;
71838;SDS011;59687;37.520;15.068;2022-10-31T06:51:19;8.20;;;4.43;;
71838;SDS011;59687;37.520;15.068;2022-10-31T06:53:49;7.75;;;4.28;;
71838;SDS011;59687;37.520;15.068;2022-10-31T06:56:16;10.37;;;4.30;;
71838;SDS011;59687;37.520;15.068;2022-10-31T06:58:47;10.02;;;5.32;;
71838;SDS011;59687;37.520;15.068;2022-10-31T07:01:21;10.75;;;4.93;;
71838;SDS011;59687;37.520;15.068;2022-10-31T07:03:50;11.55;;;4.82;;
71838;SDS011;59687;37.520;15.068;2022-10-31T07:06:17;12.07;;;5.03;;
71838;SDS011;59687;37.520;15.068;2022-10-31T07:08:44;9.47;;;4.83;;
71838;SDS011;59687;37.520;15.068;2022-10-31T07:11:13;9.68;;;5.65;;
71838;SDS011;59687;37.520;15.068;2022-10-31T07:13:39;6.97;;;4.88;;
71838;SDS011;59687;37.520;15.068;2022-10-31T07:16:08;7.22;;;4.60;;
71838;SDS011;59687;37.520;15.068;2022-10-31T07:18:42;9.93;;;4.97;;
71838;SDS011;59687;37.520;15.068;2022-10-31T07:21:11;9.03;;;4.83;;
71838;SDS011;59687;37.520;15.068;2022-10-31T07:23:39;12.38;;;4.60;;
71838;SDS011;59687;37.520;15.068;2022-10-31T07:26:41;7.93;;;4.30;;
71838;SDS011;59687;37.520;15.068;2022-10-31T07:29:09;7.25;;;4.20;;
71838;SDS011;59687;37.520;15.068;2022-10-31T07:31:37;8.32;;;4.38;;
71838;SDS011;59687;37.520;15.068;2022-10-31T07:34:11;8.70;;;3.60;;
71838;SDS011;59687;37.520;15.068;2022-10-31T07:36:53;8.75;;;3.92;;
71838;SDS011;59687;37.520;15.068;2022-10-31T07:39:21;10.57;;;5.22;;
71838;SDS011;59687;37.520;15.068;2022-10-31T07:41:49;10.85;;;5.20;;
71838;SDS011;59687;37.520;15.068;2022-10-31T07:44:18;10.85;;;4.78;;
71838;SDS011;59687;37.520;15.068;2022-10-31T07:47:05;12.17;;;5.57;;
71838;SDS011;59687;37.520;15.068;2022-10-31T07:49:50;11.40;;;5.03;;
71838;SDS011;59687;37.520;15.068;2022-10-31T07:56:11;8.77;;;4.60;;
71838;SDS011;59687;37.520;15.068;2022-10-31T07:58:46;8.63;;;4.63;;
71838;SDS011;59687;37.520;15.068;2022-10-31T08:01:13;8.27;;;4.07;;
71838;SDS011;59687;37.520;15.068;2022-10-31T08:03:49;6.22;;;3.28;;
71838;SDS011;59687;37.520;15.068;2022-10-31T08:06:42;7.78;;;3.60;;
71838;SDS011;59687;37.520;15.068;2022-10-31T08:09:23;7.22;;;3.92;;
71838;SDS011;59687;37.520;15.068;2022-10-31T08:11:53;7.55;;;3.83;;
71838;SDS011;59687;37.520;15.068;2022-10-31T08:14:20;6.70;;;3.60;;
71838;SDS011;59687;37.520;15.068;2022-10-31T08:16:51;7.07;;;3.78;;
71838;SDS011;59687;37.520;15.068;2022-10-31T08:19:22;8.10;;;3.78;;
71838;SDS011;59687;37.520;15.068;2022-10-31T08:21:53;7.75;;;3.47;;
71838;SDS011;59687;37.520;15.068;2022-10-31T08:24:21;4.97;;;3.50;;
71838;SDS011;59687;37.520;15.068;2022-10-31T08:26:50;7.77;;;3.97;;
71838;SDS011;59687;37.520;15.068;2022-10-31T08:29:18;7.13;;;3.40;;
71838;SDS011;59687;37.520;15.068;2022-10-31T08:31:46;6.32;;;2.70;;
71838;SDS011;59687;37.520;15.068;2022-10-31T08:34:32;5.28;;;2.90;;
71838;SDS011;59687;37.520;15.068;2022-10-31T08:37:19;4.93;;;2.95;;
71838;SDS011;59687;37.520;15.068;2022-10-31T08:39:51;5.60;;;2.67;;
71838;SDS011;59687;37.520;15.068;2022-10-31T08:42:21;5.90;;;2.72;;
71838;SDS011;59687;37.520;15.068;2022-10-31T08:44:48;6.53;;;2.78;;
71838;SDS011;59687;37.520;15.068;2022-10-31T08:47:16;6.25;;;3.13;;
71838;SDS011;59687;37.520;15.068;2022-10-31T08:49:44;6.80;;;2.85;;
71838;SDS011;59687;37.520;15.068;2022-10-31T08:52:12;6.00;;;2.67;;
71838;SDS011;59687;37.520;15.068;2022-10-31T08:54:45;7.60;;;2.97;;
71838;SDS011;59687;37.520;15.068;2022-10-31T08:57:38;4.97;;;2.40;;
71838;SDS011;59687;37.520;15.068;2022-10-31T09:00:09;7.07;;;2.83;;
71838;SDS011;59687;37.520;15.068;2022-10-31T09:02:59;5.10;;;2.67;;
71838;SDS011;59687;37.520;15.068;2022-10-31T09:05:31;5.90;;;2.77;;
71838;SDS011;59687;37.520;15.068;2022-10-31T09:08:00;6.90;;;3.13;;
71838;SDS011;59687;37.520;15.068;2022-10-31T09:10:30;5.88;;;3.00;;
71838;SDS011;59687;37.520;15.068;2022-10-31T09:13:09;6.80;;;2.97;;
71838;SDS011;59687;37.520;15.068;2022-10-31T09:16:10;5.95;;;2.88;;
71838;SDS011;59687;37.520;15.068;2022-10-31T09:18:37;5.30;;;3.10;;
71838;SDS011;59687;37.520;15.068;2022-10-31T09:21:04;6.43;;;3.10;;
71838;SDS011;59687;37.520;15.068;2022-10-31T09:23:32;8.05;;;3.20;;
71838;SDS011;59687;37.520;15.068;2022-10-31T09:26:01;5.80;;;3.03;;
71838;SDS011;59687;37.520;15.068;2022-10-31T09:28:29;5.85;;;3.05;;
71838;SDS011;59687;37.520;15.068;2022-10-31T09:31:07;6.03;;;2.73;;
71838;SDS011;59687;37.520;15.068;2022-10-31T09:33:46;5.57;;;2.80;;
71838;SDS011;59687;37.520;15.068;2022-10-31T09:36:31;6.20;;;3.45;;
71838;SDS011;59687;37.520;15.068;2022-10-31T09:38:58;5.47;;;2.88;;
71838;SDS011;59687;37.520;15.068;2022-10-31T09:41:30;7.47;;;3.20;;
71838;SDS011;59687;37.520;15.068;2022-10-31T09:46:43;5.53;;;2.80;;
71838;SDS011;59687;37.520;15.068;2022-10-31T09:52:20;4.88;;;2.97;;
71838;SDS011;59687;37.520;15.068;2022-10-31T09:57:34;5.77;;;3.20;;
71838;SDS011;59687;37.520;15.068;2022-10-31T10:00:04;6.82;;;3.33;;
71838;SDS011;59687;37.520;15.068;2022-10-31T10:02:44;6.55;;;2.97;;
71838;SDS011;59687;37.520;15.068;2022-10-31T10:05:18;8.07;;;3.15;;
71838;SDS011;59687;37.520;15.068;2022-10-31T10:08:02;6.25;;;3.47;;
71838;SDS011;59687;37.520;15.068;2022-10-31T10:28:11;6.00;;;3.00;;
71838;SDS011;59687;37.520;15.068;2022-10-31T10:30:53;5.65;;;3.10;;
71838;SDS011;59687;37.520;15.068;2022-10-31T10:33:44;5.25;;;2.72;;
71838;SDS011;59687;37.520;15.068;2022-10-31T10:36:38;7.50;;;3.40;;
71838;SDS011;59687;37.520;15.068;2022-10-31T10:39:31;5.57;;;2.80;;
71838;SDS011;59687;37.520;15.068;2022-10-31T10:42:13;5.63;;;3.10;;
71838;SDS011;59687;37.520;15.068;2022-10-31T10:45:09;8.40;;;3.65;;
71838;SDS011;59687;37.520;15.068;2022-10-31T10:48:03;6.90;;;3.72;;
71838;SDS011;59687;37.520;15.068;2022-10-31T10:50:38;6.93;;;3.40;;
71838;SDS011;59687;37.520;15.068;2022-10-31T10:55:50;5.15;;;2.80;;
71838;SDS011;59687;37.520;15.068;2022-10-31T10:58:24;5.88;;;3.25;;
71838;SDS011;59687;37.520;15.068;2022-10-31T11:00:52;6.57;;;3.50;;
71838;SDS011;59687;37.520;15.068;2022-10-31T11:03:21;5.22;;;3.33;;
71838;SDS011;59687;37.520;15.068;2022-10-31T11:05:55;6.20;;;2.63;;
71838;SDS011;59687;37.520;15.068;2022-10-31T11:08:29;6.95;;;3.30;;
71838;SDS011;59687;37.520;15.068;2022-10-31T11:13:48;5.45;;;3.30;;
71838;SDS011;59687;37.520;15.068;2022-10-31T11:19:25;5.87;;;3.07;;
71838;SDS011;59687;37.520;15.068;2022-10-31T11:21:53;6.03;;;3.20;;
71838;SDS011;59687;37.520;15.068;2022-10-31T11:24:24;8.32;;;3.80;;
71838;SDS011;59687;37.520;15.068;2022-10-31T11:27:05;9.05;;;3.47;;
71838;SDS011;59687;37.520;15.068;2022-10-31T11:29:40;7.25;;;3.30;;
71838;SDS011;59687;37.520;15.068;2022-10-31T11:32:15;5.60;;;2.90;;
71838;SDS011;59687;37.520;15.068;2022-10-31T11:34:56;5.75;;;2.90;;
71838;SDS011;59687;37.520;15.068;2022-10-31T11:37:30;7.32;;;3.50;;
71838;SDS011;59687;37.520;15.068;2022-10-31T11:40:05;7.70;;;3.40;;
71838;SDS011;59687;37.520;15.068;2022-10-31T11:42:56;6.55;;;2.92;;
71838;SDS011;59687;37.520;15.068;2022-10-31T11:45:32;7.90;;;3.20;;
71838;SDS011;59687;37.520;15.068;2022-10-31T11:48:00;6.43;;;3.50;;
71838;SDS011;59687;37.520;15.068;2022-10-31T11:50:36;5.90;;;3.17;;
71838;SDS011;59687;37.520;15.068;2022-10-31T11:53:12;5.97;;;3.00;;
71838;SDS011;59687;37.520;15.068;2022-10-31T11:55:43;6.07;;;3.20;;
71838;SDS011;59687;37.520;15.068;2022-10-31T11:58:24;5.83;;;2.93;;
71838;SDS011;59687;37.520;15.068;2022-10-31T12:00:53;6.13;;;3.20;;
71838;SDS011;59687;37.520;15.068;2022-10-31T12:08:45;6.72;;;2.85;;
71838;SDS011;59687;37.520;15.068;2022-10-31T12:14:12;6.38;;;3.35;;
71838;SDS011;59687;37.520;15.068;2022-10-31T12:17:08;7.07;;;3.78;;
71838;SDS011;59687;37.520;15.068;2022-10-31T12:30:55;7.47;;;3.40;;
71838;SDS011;59687;37.520;15.068;2022-10-31T12:41:45;7.07;;;3.50;;
71838;SDS011;59687;37.520;15.068;2022-10-31T12:52:32;6.53;;;3.50;;
71838;SDS011;59687;37.520;15.068;2022-10-31T12:57:58;7.53;;;3.72;;
71838;SDS011;59687;37.520;15.068;2022-10-31T13:00:31;6.95;;;3.67;;
71838;SDS011;59687;37.520;15.068;2022-10-31T13:03:09;7.72;;;3.55;;
71838;SDS011;59687;37.520;15.068;2022-10-31T13:05:58;5.93;;;3.40;;
71838;SDS011;59687;37.520;15.068;2022-10-31T13:08:34;7.72;;;3.58;;
71838;SDS011;59687;37.520;15.068;2022-10-31T13:11:23;7.38;;;3.53;;
71838;SDS011;59687;37.520;15.068;2022-10-31T13:14:10;7.28;;;3.50;;
71838;SDS011;59687;37.520;15.068;2022-10-31T13:16:39;7.30;;;3.50;;
71838;SDS011;59687;37.520;15.068;2022-10-31T13:24:23;6.68;;;3.30;;
71838;SDS011;59687;37.520;15.068;2022-10-31T13:26:59;6.00;;;3.75;;
71838;SDS011;59687;37.520;15.068;2022-10-31T13:29:39;7.93;;;3.70;;
71838;SDS011;59687;37.520;15.068;2022-10-31T13:32:10;7.60;;;3.73;;
71838;SDS011;59687;37.520;15.068;2022-10-31T13:34:45;8.43;;;3.50;;
71838;SDS011;59687;37.520;15.068;2022-10-31T13:37:16;6.30;;;3.67;;
71838;SDS011;59687;37.520;15.068;2022-10-31T13:45:30;6.53;;;3.13;;
71838;SDS011;59687;37.520;15.068;2022-10-31T13:47:59;6.95;;;3.17;;
71838;SDS011;59687;37.520;15.068;2022-10-31T13:50:42;7.20;;;3.70;;
71838;SDS011;59687;37.520;15.068;2022-10-31T13:53:21;7.45;;;3.78;;
71838;SDS011;59687;37.520;15.068;2022-10-31T13:58:34;6.73;;;3.67;;
71838;SDS011;59687;37.520;15.068;2022-10-31T14:03:42;8.30;;;4.00;;
71838;SDS011;59687;37.520;15.068;2022-10-31T14:07:14;8.35;;;3.75;;
71838;SDS011;59687;37.520;15.068;2022-10-31T14:09:25;6.35;;;3.45;;
71838;SDS011;59687;37.520;15.068;2022-10-31T14:12:00;6.73;;;3.33;;
71838;SDS011;59687;37.520;15.068;2022-10-31T14:14:32;7.00;;;3.60;;
71838;SDS011;59687;37.520;15.068;2022-10-31T14:17:02;7.57;;;3.83;;
71838;SDS011;59687;37.520;15.068;2022-10-31T14:19:29;8.75;;;4.07;;
71838;SDS011;59687;37.520;15.068;2022-10-31T14:21:58;8.88;;;3.85;;
71838;SDS011;59687;37.520;15.068;2022-10-31T14:26:53;8.48;;;4.05;;
71838;SDS011;59687;37.520;15.068;2022-10-31T14:29:28;9.13;;;3.90;;
71838;SDS011;59687;37.520;15.068;2022-10-31T14:34:50;6.03;;;3.97;;
71838;SDS011;59687;37.520;15.068;2022-10-31T14:52:00;8.73;;;3.53;;
71838;SDS011;59687;37.520;15.068;2022-10-31T14:54:33;8.32;;;3.92;;
71838;SDS011;59687;37.520;15.068;2022-10-31T14:57:05;7.15;;;3.55;;
71838;SDS011;59687;37.520;15.068;2022-10-31T14:59:36;7.63;;;4.13;;
71838;SDS011;59687;37.520;15.068;2022-10-31T15:04:52;8.47;;;4.07;;
71838;SDS011;59687;37.520;15.068;2022-10-31T15:07:22;6.45;;;4.15;;
71838;SDS011;59687;37.520;15.068;2022-10-31T15:09:57;8.57;;;4.15;;
71838;SDS011;59687;37.520;15.068;2022-10-31T15:12:29;7.97;;;3.92;;
71838;SDS011;59687;37.520;15.068;2022-10-31T15:14:57;6.68;;;3.88;;
71838;SDS011;59687;37.520;15.068;2022-10-31T15:17:41;8.70;;;4.57;;
71838;SDS011;59687;37.520;15.068;2022-10-31T15:20:22;8.70;;;4.10;;
71838;SDS011;59687;37.520;15.068;2022-10-31T15:22:53;7.80;;;4.72;;
71838;SDS011;59687;37.520;15.068;2022-10-31T15:25:23;9.90;;;5.10;;
71838;SDS011;59687;37.520;15.068;2022-10-31T15:27:52;8.18;;;4.38;;
71838;SDS011;59687;37.520;15.068;2022-10-31T15:30:23;8.97;;;4.60;;
71838;SDS011;59687;37.520;15.068;2022-10-31T15:32:52;9.43;;;4.90;;
71838;SDS011;59687;37.520;15.068;2022-10-31T15:35:27;10.45;;;7.13;;
71838;SDS011;59687;37.520;15.068;2022-10-31T15:37:56;8.35;;;5.53;;
71838;SDS011;59687;37.520;15.068;2022-10-31T15:40:25;13.52;;;5.03;;
71838;SDS011;59687;37.520;15.068;2022-10-31T15:45:24;12.82;;;5.70;;
71838;SDS011;59687;37.520;15.068;2022-10-31T15:47:59;9.68;;;5.13;;
71838;SDS011;59687;37.520;15.068;2022-10-31T15:53:06;12.32;;;7.22;;
71838;SDS011;59687;37.520;15.068;2022-10-31T15:55:49;9.50;;;5.00;;
71838;SDS011;59687;37.520;15.068;2022-10-31T15:58:19;9.38;;;4.60;;
71838;SDS011;59687;37.520;15.068;2022-10-31T16:01:01;8.57;;;5.07;;
71838;SDS011;59687;37.520;15.068;2022-10-31T16:03:31;9.68;;;5.85;;
71838;SDS011;59687;37.520;15.068;2022-10-31T16:06:03;8.48;;;5.00;;
71838;SDS011;59687;37.520;15.068;2022-10-31T16:08:35;12.73;;;6.93;;
71838;SDS011;59687;37.520;15.068;2022-10-31T16:13:34;9.55;;;6.03;;
71838;SDS011;59687;37.520;15.068;2022-10-31T16:16:10;8.30;;;5.65;;
71838;SDS011;59687;37.520;15.068;2022-10-31T16:18:59;7.57;;;5.30;;
71838;SDS011;59687;37.520;15.068;2022-10-31T16:21:32;10.53;;;5.83;;
71838;SDS011;59687;37.520;15.068;2022-10-31T16:24:03;12.10;;;6.15;;
71838;SDS011;59687;37.520;15.068;2022-10-31T16:26:40;9.05;;;5.22;;
71838;SDS011;59687;37.520;15.068;2022-10-31T16:29:22;10.77;;;5.43;;
71838;SDS011;59687;37.520;15.068;2022-10-31T16:31:52;12.60;;;7.00;;
71838;SDS011;59687;37.520;15.068;2022-10-31T16:34:20;9.87;;;7.40;;
71838;SDS011;59687;37.520;15.068;2022-10-31T16:36:51;10.93;;;7.25;;
71838;SDS011;59687;37.520;15.068;2022-10-31T16:39:18;10.30;;;6.65;;
71838;SDS011;59687;37.520;15.068;2022-10-31T16:41:49;11.60;;;7.22;;
71838;SDS011;59687;37.520;15.068;2022-10-31T16:44:22;11.30;;;8.20;;
71838;SDS011;59687;37.520;15.068;2022-10-31T16:47:09;11.40;;;6.87;;
71838;SDS011;59687;37.520;15.068;2022-10-31T16:49:40;11.32;;;7.55;;
71838;SDS011;59687;37.520;15.068;2022-10-31T16:52:12;8.63;;;6.00;;
71838;SDS011;59687;37.520;15.068;2022-10-31T16:54:40;12.45;;;7.18;;
71838;SDS011;59687;37.520;15.068;2022-10-31T16:57:09;10.98;;;6.60;;
71838;SDS011;59687;37.520;15.068;2022-10-31T16:59:41;13.70;;;8.30;;
71838;SDS011;59687;37.520;15.068;2022-10-31T17:02:14;14.40;;;8.75;;
71838;SDS011;59687;37.520;15.068;2022-10-31T17:04:42;12.82;;;8.45;;
71838;SDS011;59687;37.520;15.068;2022-10-31T17:07:10;14.45;;;8.30;;
71838;SDS011;59687;37.520;15.068;2022-10-31T17:09:37;17.45;;;9.98;;
71838;SDS011;59687;37.520;15.068;2022-10-31T17:12:05;15.10;;;9.80;;
71838;SDS011;59687;37.520;15.068;2022-10-31T17:14:33;15.15;;;9.85;;
71838;SDS011;59687;37.520;15.068;2022-10-31T17:17:02;18.88;;;12.13;;
71838;SDS011;59687;37.520;15.068;2022-10-31T17:19:29;15.27;;;10.32;;
71838;SDS011;59687;37.520;15.068;2022-10-31T17:21:56;15.18;;;9.65;;
71838;SDS011;59687;37.520;15.068;2022-10-31T17:24:23;19.50;;;11.17;;
71838;SDS011;59687;37.520;15.068;2022-10-31T17:26:50;23.50;;;14.23;;
71838;SDS011;59687;37.520;15.068;2022-10-31T17:29:18;34.90;;;19.67;;
71838;SDS011;59687;37.520;15.068;2022-10-31T17:31:45;119.18;;;53.00;;
71838;SDS011;59687;37.520;15.068;2022-10-31T17:34:13;59.63;;;28.90;;
71838;SDS011;59687;37.520;15.068;2022-10-31T17:36:40;45.20;;;23.10;;
71838;SDS011;59687;37.520;15.068;2022-10-31T17:39:08;46.33;;;24.02;;
71838;SDS011;59687;37.520;15.068;2022-10-31T17:41:36;39.70;;;19.67;;
71838;SDS011;59687;37.520;15.068;2022-10-31T17:44:04;31.58;;;17.52;;
71838;SDS011;59687;37.520;15.068;2022-10-31T17:46:30;31.73;;;16.67;;